createdAt,value
2022-12-12T19:27:21.724Z,101237.76
2022-12-12T19:36:41.570Z,101223.22
2022-12-12T19:42:46.965Z,101234.38
2022-12-12T19:52:57.836Z,101232.05
2022-12-12T19:58:40.001Z,101237.44
2022-12-12T20:10:45.779Z,101246.08
2022-12-12T20:13:04.456Z,101252.22
2022-12-12T20:17:29.004Z,101240.72
2022-12-12T20:20:26.601Z,101247.50
2022-12-12T20:24:11.666Z,101241.56
2022-12-12T20:28:58.971Z,101243.66
2022-12-12T20:29:59.245Z,101244.32
2022-12-12T20:30:59.410Z,101244.39
2022-12-12T20:32:00.329Z,101245.31
2022-12-12T20:33:41.689Z,101258.78
2022-12-12T20:35:49.560Z,101261.02
2022-12-12T20:46:09.342Z,101262.72
2022-12-12T20:47:57.344Z,101259.97
2022-12-12T20:51:54.625Z,101254.04
2022-12-12T20:52:26.644Z,101254.14
2022-12-12T20:53:29.046Z,101254.70
2022-12-12T20:54:27.507Z,101254.96
2022-12-12T20:55:27.855Z,101254.89
2022-12-12T20:56:28.312Z,101254.96
2022-12-12T20:57:28.617Z,101255.62
2022-12-12T20:58:30.142Z,101255.62
2022-12-12T20:59:29.465Z,101256.52
2022-12-12T21:00:30.098Z,101256.75
2022-12-12T21:01:30.446Z,101257.58
2022-12-12T21:02:33.237Z,101257.75
2022-12-12T21:03:31.981Z,101258.72
2022-12-12T21:04:32.839Z,101259.22
2022-12-12T21:05:33.222Z,101259.84
2022-12-12T21:06:33.545Z,101260.58
2022-12-12T21:07:34.030Z,101261.01
2022-12-12T21:08:34.461Z,101261.41
2022-12-12T21:08:59.484Z,101274.21
2022-12-12T21:09:59.824Z,101274.05
2022-12-12T21:11:58.706Z,101273.55
2022-12-12T21:12:03.549Z,101273.48
2022-12-12T21:13:11.281Z,101272.83
2022-12-12T21:14:08.096Z,101273.08
2022-12-12T21:15:45.896Z,101272.65
2022-12-12T21:16:42.670Z,101272.58
2022-12-12T21:17:35.924Z,101272.58
2022-12-12T21:18:36.538Z,101273.01
2022-12-12T21:19:37.304Z,101272.94
2022-12-12T21:20:38.141Z,101273.00
2022-12-12T21:21:38.207Z,101272.84
2022-12-12T21:22:38.786Z,101272.58
2022-12-12T21:23:39.307Z,101272.32
2022-12-12T21:24:39.537Z,101272.26
2022-12-12T21:25:40.427Z,101272.49
2022-12-12T21:26:41.375Z,101272.47
2022-12-12T21:27:41.512Z,101272.53
2022-12-12T21:28:41.683Z,101272.78
2022-12-12T21:29:42.598Z,101273.34
2022-12-12T21:30:42.638Z,101273.11
2022-12-12T21:31:48.605Z,101272.43
2022-12-12T21:32:43.206Z,101272.50
2022-12-12T21:32:54.171Z,101267.82
2022-12-12T21:33:54.690Z,101267.89
2022-12-12T21:34:54.857Z,101267.73
2022-12-12T21:35:55.488Z,101267.73
2022-12-12T21:36:56.320Z,101267.47
2022-12-12T21:37:56.927Z,101267.14
2022-12-12T21:38:57.243Z,101267.14
2022-12-12T21:39:58.188Z,101266.80
2022-12-12T21:40:58.577Z,101266.31
2022-12-12T21:41:59.446Z,101266.22
2022-12-12T21:43:00.122Z,101266.22
2022-12-12T21:44:00.998Z,101266.10
2022-12-12T21:45:01.069Z,101266.70
2022-12-12T21:46:01.901Z,101266.41
2022-12-12T21:47:02.326Z,101266.41
2022-12-12T21:48:02.957Z,101266.26
2022-12-12T21:49:02.968Z,101266.48
2022-12-12T21:50:03.290Z,101266.30
2022-12-12T21:51:03.404Z,101266.30
2022-12-12T21:52:03.702Z,101267.53
2022-12-12T21:53:03.834Z,101267.59
2022-12-12T21:54:04.490Z,101267.70
2022-12-12T21:55:05.141Z,101268.75
2022-12-12T21:56:05.227Z,101269.74
2022-12-12T21:57:05.783Z,101269.48
2022-12-12T21:58:05.989Z,101269.64
2022-12-12T21:59:07.008Z,101269.48
2022-12-12T22:00:06.937Z,101269.64
2022-12-12T22:01:07.279Z,101269.55
2022-12-12T22:01:17.039Z,101272.37
2022-12-12T22:02:17.345Z,101271.94
2022-12-12T22:03:17.721Z,101271.45
2022-12-12T22:04:18.768Z,101271.21
2022-12-12T22:05:19.306Z,101270.30
2022-12-12T22:06:20.229Z,101269.96
2022-12-12T22:07:20.590Z,101268.81
2022-12-12T22:08:20.786Z,101268.55
2022-12-12T22:09:21.607Z,101267.63
2022-12-12T22:10:22.309Z,101266.74
2022-12-12T22:11:39.555Z,101266.22
2022-12-12T22:12:23.025Z,101265.56
2022-12-12T22:13:23.255Z,101265.47
2022-12-12T22:14:23.920Z,101265.38
2022-12-12T22:15:24.566Z,101265.21
2022-12-12T22:16:25.458Z,101264.95
2022-12-12T22:17:26.268Z,101264.86
2022-12-12T22:18:26.289Z,101264.86
2022-12-12T22:19:27.127Z,101264.94
2022-12-12T22:20:27.158Z,101264.65
2022-12-12T22:21:27.674Z,101264.39
2022-12-12T22:22:27.749Z,101264.89
2022-12-12T22:23:27.918Z,101265.13
2022-12-12T22:24:28.897Z,101265.00
2022-12-12T22:25:28.848Z,101265.17
2022-12-12T22:26:29.700Z,101264.75
2022-12-12T22:27:30.156Z,101264.33
2022-12-12T22:28:30.708Z,101263.71
2022-12-12T22:29:30.886Z,101263.53
2022-12-12T22:29:48.105Z,101269.59
2022-12-12T22:30:48.681Z,101268.84
2022-12-12T22:31:48.824Z,101269.01
2022-12-12T22:32:49.041Z,101268.61
2022-12-12T22:33:49.940Z,101268.35
2022-12-12T22:34:50.802Z,101268.03
2022-12-12T22:35:51.204Z,101267.59
2022-12-12T22:36:51.324Z,101267.00
2022-12-12T22:37:52.110Z,101267.11
2022-12-12T22:38:52.498Z,101266.75
2022-12-12T22:39:53.224Z,101266.52
2022-12-12T22:40:53.324Z,101265.93
2022-12-12T22:41:54.015Z,101265.93
2022-12-12T22:42:54.824Z,101265.34
2022-12-12T22:43:55.797Z,101265.17
2022-12-12T22:44:56.224Z,101265.02
2022-12-12T22:45:57.063Z,101265.27
2022-12-12T22:46:57.689Z,101264.88
2022-12-12T22:47:58.262Z,101264.94
2022-12-12T22:48:58.719Z,101264.87
2022-12-12T22:49:59.681Z,101264.97
2022-12-12T22:50:59.689Z,101264.86
2022-12-12T22:51:59.772Z,101264.63
2022-12-12T22:53:00.667Z,101265.05
2022-12-12T22:54:00.880Z,101264.33
2022-12-12T22:55:01.585Z,101264.26
2022-12-12T22:56:01.537Z,101263.66
2022-12-12T22:57:01.723Z,101263.73
2022-12-12T22:58:02.107Z,101263.64
2022-12-12T22:58:11.616Z,101260.66
2022-12-12T22:59:11.598Z,101259.91
2022-12-12T23:00:13.309Z,101259.41
2022-12-12T23:01:12.909Z,101259.51
2022-12-12T23:02:13.738Z,101259.34
2022-12-12T23:03:14.285Z,101258.81
2022-12-12T23:04:14.804Z,101258.59
2022-12-12T23:05:15.136Z,101258.33
2022-12-12T23:06:15.337Z,101258.06
2022-12-12T23:07:15.737Z,101257.41
2022-12-12T23:08:16.373Z,101257.25
2022-12-12T23:09:17.067Z,101256.66
2022-12-12T23:10:17.984Z,101255.97
2022-12-12T23:11:18.742Z,101255.25
2022-12-12T23:12:19.911Z,101254.39
2022-12-12T23:13:18.984Z,101253.73
2022-12-12T23:14:19.083Z,101253.31
2022-12-12T23:15:19.379Z,101252.72
2022-12-12T23:16:20.419Z,101252.16
2022-12-12T23:17:20.681Z,101250.81
2022-12-12T23:18:21.558Z,101250.06
2022-12-12T23:19:21.856Z,101249.50
2022-12-12T23:20:22.538Z,101248.91
2022-12-12T23:21:22.639Z,101248.66
2022-12-12T23:22:23.567Z,101248.66
2022-12-12T23:23:24.116Z,101247.44
2022-12-12T23:24:24.897Z,101247.44
2022-12-12T23:24:38.082Z,101251.81
2022-12-12T23:25:35.281Z,101251.05
2022-12-12T23:26:35.582Z,101250.49
2022-12-12T23:27:36.043Z,101249.24
2022-12-12T23:28:36.918Z,101248.25
2022-12-12T23:29:36.926Z,101247.17
2022-12-12T23:30:37.001Z,101246.28
2022-12-12T23:31:37.816Z,101245.43
2022-12-12T23:32:38.329Z,101244.94
2022-12-12T23:33:39.270Z,101244.19
2022-12-12T23:34:39.784Z,101243.85
2022-12-12T23:35:40.647Z,101243.09
2022-12-12T23:36:40.954Z,101242.51
2022-12-12T23:37:41.860Z,101241.69
2022-12-12T23:38:43.019Z,101241.42
2022-12-12T23:39:42.777Z,101241.00
2022-12-12T23:40:43.587Z,101239.85
2022-12-12T23:41:43.856Z,101239.26
2022-12-12T23:42:44.332Z,101238.53
2022-12-12T23:43:45.338Z,101237.85
2022-12-12T23:44:45.833Z,101237.20
2022-12-12T23:45:46.157Z,101237.36
2022-12-12T23:46:46.580Z,101237.03
2022-12-12T23:47:47.408Z,101236.70
2022-12-12T23:48:48.108Z,101236.70
2022-12-12T23:49:50.070Z,101236.02
2022-12-12T23:50:49.126Z,101236.41
2022-12-12T23:51:49.693Z,101236.16
2022-12-12T23:51:59.898Z,101242.16
2022-12-12T23:53:00.041Z,101242.00
2022-12-12T23:54:01.998Z,101241.34
2022-12-12T23:55:01.750Z,101240.68
2022-12-12T23:56:02.651Z,101240.58
2022-12-12T23:57:02.670Z,101239.36
2022-12-12T23:58:03.424Z,101239.36
2022-12-12T23:59:04.224Z,101238.21
